sensor_id;sensor_type;location;lat;lon;timestamp;temperature;humidity
26623;DHT22;14254;50.968;5.366;2023-07-13T00:02:15;17.40;99.90
26623;DHT22;14254;50.968;5.366;2023-07-13T00:04:40;17.40;99.90
26623;DHT22;14254;50.968;5.366;2023-07-13T00:07:07;17.30;99.90
26623;DHT22;14254;50.968;5.366;2023-07-13T00:09:33;17.30;99.90
26623;DHT22;14254;50.968;5.366;2023-07-13T00:11:58;17.20;99.90
26623;DHT22;14254;50.968;5.366;2023-07-13T00:14:26;17.10;99.90
26623;DHT22;14254;50.968;5.366;2023-07-13T00:16:52;17.10;99.90
26623;DHT22;14254;50.968;5.366;2023-07-13T00:19:17;17.20;99.90
26623;DHT22;14254;50.968;5.366;2023-07-13T00:21:43;17.20;99.90
26623;DHT22;14254;50.968;5.366;2023-07-13T00:24:12;17.10;99.90
26623;DHT22;14254;50.968;5.366;2023-07-13T00:26:41;17.10;99.90
26623;DHT22;14254;50.968;5.366;2023-07-13T00:29:10;17.00;99.90
26623;DHT22;14254;50.968;5.366;2023-07-13T00:31:35;17.00;99.90
26623;DHT22;14254;50.968;5.366;2023-07-13T00:34:02;16.90;99.90
26623;DHT22;14254;50.968;5.366;2023-07-13T00:36:27;16.80;99.90
26623;DHT22;14254;50.968;5.366;2023-07-13T00:38:53;16.80;99.90
26623;DHT22;14254;50.968;5.366;2023-07-13T00:41:19;16.80;99.90
26623;DHT22;14254;50.968;5.366;2023-07-13T00:43:45;16.70;99.90
26623;DHT22;14254;50.968;5.366;2023-07-13T00:46:22;16.70;99.90
26623;DHT22;14254;50.968;5.366;2023-07-13T00:48:49;16.70;99.90
26623;DHT22;14254;50.968;5.366;2023-07-13T00:51:19;16.70;99.90
26623;DHT22;14254;50.968;5.366;2023-07-13T00:53:46;16.70;99.90
26623;DHT22;14254;50.968;5.366;2023-07-13T00:56:12;16.80;99.90
26623;DHT22;14254;50.968;5.366;2023-07-13T00:58:38;16.70;99.90
26623;DHT22;14254;50.968;5.366;2023-07-13T01:01:04;16.70;99.90
26623;DHT22;14254;50.968;5.366;2023-07-13T01:03:29;16.70;99.90
26623;DHT22;14254;50.968;5.366;2023-07-13T01:05:55;16.80;99.90
26623;DHT22;14254;50.968;5.366;2023-07-13T01:08:22;16.80;99.90
26623;DHT22;14254;50.968;5.366;2023-07-13T01:10:54;16.80;99.90
26623;DHT22;14254;50.968;5.366;2023-07-13T01:13:20;16.70;99.90
26623;DHT22;14254;50.968;5.366;2023-07-13T01:15:48;16.70;99.90
26623;DHT22;14254;50.968;5.366;2023-07-13T01:18:26;16.60;99.90
26623;DHT22;14254;50.968;5.366;2023-07-13T01:23:17;16.50;99.90
26623;DHT22;14254;50.968;5.366;2023-07-13T01:25:44;16.50;99.90
26623;DHT22;14254;50.968;5.366;2023-07-13T01:28:10;16.50;99.90
26623;DHT22;14254;50.968;5.366;2023-07-13T01:30:37;16.50;99.90
26623;DHT22;14254;50.968;5.366;2023-07-13T01:33:06;16.50;99.90
26623;DHT22;14254;50.968;5.366;2023-07-13T01:35:33;16.50;99.90
26623;DHT22;14254;50.968;5.366;2023-07-13T01:37:59;16.50;99.90
26623;DHT22;14254;50.968;5.366;2023-07-13T01:40:27;16.60;99.90
26623;DHT22;14254;50.968;5.366;2023-07-13T01:42:53;16.50;99.90
26623;DHT22;14254;50.968;5.366;2023-07-13T01:45:18;16.40;99.90
26623;DHT22;14254;50.968;5.366;2023-07-13T01:47:44;16.40;99.90
26623;DHT22;14254;50.968;5.366;2023-07-13T01:50:10;16.30;99.90
26623;DHT22;14254;50.968;5.366;2023-07-13T01:52:36;16.30;99.90
26623;DHT22;14254;50.968;5.366;2023-07-13T01:55:01;16.20;99.90
26623;DHT22;14254;50.968;5.366;2023-07-13T01:57:27;16.30;99.90
26623;DHT22;14254;50.968;5.366;2023-07-13T01:59:53;16.30;99.90
26623;DHT22;14254;50.968;5.366;2023-07-13T02:02:19;16.40;99.90
26623;DHT22;14254;50.968;5.366;2023-07-13T02:04:45;16.40;99.90
26623;DHT22;14254;50.968;5.366;2023-07-13T02:07:10;16.40;99.90
26623;DHT22;14254;50.968;5.366;2023-07-13T02:09:36;16.30;99.90
26623;DHT22;14254;50.968;5.366;2023-07-13T02:12:02;16.30;99.90
26623;DHT22;14254;50.968;5.366;2023-07-13T02:14:28;16.20;99.90
26623;DHT22;14254;50.968;5.366;2023-07-13T02:16:54;16.10;99.90
26623;DHT22;14254;50.968;5.366;2023-07-13T02:19:20;16.20;99.90
26623;DHT22;14254;50.968;5.366;2023-07-13T02:21:45;16.20;99.90
26623;DHT22;14254;50.968;5.366;2023-07-13T02:24:11;16.30;99.90
26623;DHT22;14254;50.968;5.366;2023-07-13T02:26:45;16.20;99.90
26623;DHT22;14254;50.968;5.366;2023-07-13T02:29:11;16.10;99.90
26623;DHT22;14254;50.968;5.366;2023-07-13T02:31:37;16.00;99.90
26623;DHT22;14254;50.968;5.366;2023-07-13T02:34:03;16.00;99.90
26623;DHT22;14254;50.968;5.366;2023-07-13T02:36:30;16.10;99.90
26623;DHT22;14254;50.968;5.366;2023-07-13T02:38:56;16.20;99.90
26623;DHT22;14254;50.968;5.366;2023-07-13T02:41:21;16.00;99.90
26623;DHT22;14254;50.968;5.366;2023-07-13T02:43:48;16.10;99.90
26623;DHT22;14254;50.968;5.366;2023-07-13T02:46:14;16.10;99.90
26623;DHT22;14254;50.968;5.366;2023-07-13T02:48:40;15.90;99.90
26623;DHT22;14254;50.968;5.366;2023-07-13T02:51:06;16.00;99.90
26623;DHT22;14254;50.968;5.366;2023-07-13T02:53:33;16.00;99.90
26623;DHT22;14254;50.968;5.366;2023-07-13T02:56:00;15.90;99.90
26623;DHT22;14254;50.968;5.366;2023-07-13T02:58:26;15.90;99.90
26623;DHT22;14254;50.968;5.366;2023-07-13T03:00:52;15.80;99.90
26623;DHT22;14254;50.968;5.366;2023-07-13T03:03:17;15.80;99.90
26623;DHT22;14254;50.968;5.366;2023-07-13T03:05:44;15.70;99.90
26623;DHT22;14254;50.968;5.366;2023-07-13T03:08:15;15.70;99.90
26623;DHT22;14254;50.968;5.366;2023-07-13T03:10:41;15.80;99.90
26623;DHT22;14254;50.968;5.366;2023-07-13T03:13:07;15.90;99.90
26623;DHT22;14254;50.968;5.366;2023-07-13T03:15:33;16.00;99.90
26623;DHT22;14254;50.968;5.366;2023-07-13T03:17:58;16.10;99.90
26623;DHT22;14254;50.968;5.366;2023-07-13T03:20:24;16.20;99.90
26623;DHT22;14254;50.968;5.366;2023-07-13T03:22:49;16.20;99.90
26623;DHT22;14254;50.968;5.366;2023-07-13T03:25:15;16.20;99.90
26623;DHT22;14254;50.968;5.366;2023-07-13T03:27:41;16.20;99.90
26623;DHT22;14254;50.968;5.366;2023-07-13T03:30:07;16.20;99.90
26623;DHT22;14254;50.968;5.366;2023-07-13T03:32:33;16.10;99.90
26623;DHT22;14254;50.968;5.366;2023-07-13T03:34:59;16.00;99.90
26623;DHT22;14254;50.968;5.366;2023-07-13T03:37:25;16.00;99.90
26623;DHT22;14254;50.968;5.366;2023-07-13T03:39:50;16.00;99.90
26623;DHT22;14254;50.968;5.366;2023-07-13T03:42:16;16.10;99.90
26623;DHT22;14254;50.968;5.366;2023-07-13T03:44:42;16.10;99.90
26623;DHT22;14254;50.968;5.366;2023-07-13T03:47:11;16.10;99.90
26623;DHT22;14254;50.968;5.366;2023-07-13T03:49:37;16.20;99.90
26623;DHT22;14254;50.968;5.366;2023-07-13T03:52:03;16.20;99.90
26623;DHT22;14254;50.968;5.366;2023-07-13T03:54:29;16.30;99.90
26623;DHT22;14254;50.968;5.366;2023-07-13T03:56:55;16.40;99.90
26623;DHT22;14254;50.968;5.366;2023-07-13T03:59:20;16.50;99.90
26623;DHT22;14254;50.968;5.366;2023-07-13T04:01:46;16.60;99.90
26623;DHT22;14254;50.968;5.366;2023-07-13T04:04:12;16.60;99.90
26623;DHT22;14254;50.968;5.366;2023-07-13T04:06:37;16.50;99.90
26623;DHT22;14254;50.968;5.366;2023-07-13T04:09:04;16.50;99.90
26623;DHT22;14254;50.968;5.366;2023-07-13T04:11:34;16.50;99.90
26623;DHT22;14254;50.968;5.366;2023-07-13T04:14:01;16.40;99.90
26623;DHT22;14254;50.968;5.366;2023-07-13T04:16:27;16.40;99.90
26623;DHT22;14254;50.968;5.366;2023-07-13T04:18:55;16.40;99.90
26623;DHT22;14254;50.968;5.366;2023-07-13T04:21:25;16.50;99.90
26623;DHT22;14254;50.968;5.366;2023-07-13T04:23:51;16.50;99.90
26623;DHT22;14254;50.968;5.366;2023-07-13T04:26:16;16.60;99.90
26623;DHT22;14254;50.968;5.366;2023-07-13T04:28:42;16.60;99.90
26623;DHT22;14254;50.968;5.366;2023-07-13T04:31:08;16.70;99.90
26623;DHT22;14254;50.968;5.366;2023-07-13T04:33:33;16.80;99.90
26623;DHT22;14254;50.968;5.366;2023-07-13T04:35:59;16.80;99.90
26623;DHT22;14254;50.968;5.366;2023-07-13T04:38:29;16.80;99.90
26623;DHT22;14254;50.968;5.366;2023-07-13T04:40:57;16.90;99.90
26623;DHT22;14254;50.968;5.366;2023-07-13T04:43:23;16.80;99.90
26623;DHT22;14254;50.968;5.366;2023-07-13T04:45:50;17.00;99.90
26623;DHT22;14254;50.968;5.366;2023-07-13T04:48:16;17.00;99.90
26623;DHT22;14254;50.968;5.366;2023-07-13T04:50:42;17.00;99.90
26623;DHT22;14254;50.968;5.366;2023-07-13T04:53:08;17.00;99.90
26623;DHT22;14254;50.968;5.366;2023-07-13T04:55:34;17.00;99.90
26623;DHT22;14254;50.968;5.366;2023-07-13T04:58:00;17.10;99.90
26623;DHT22;14254;50.968;5.366;2023-07-13T05:00:26;17.20;99.90
26623;DHT22;14254;50.968;5.366;2023-07-13T05:02:54;17.10;99.90
26623;DHT22;14254;50.968;5.366;2023-07-13T05:05:20;17.10;99.90
26623;DHT22;14254;50.968;5.366;2023-07-13T05:07:45;17.10;99.90
26623;DHT22;14254;50.968;5.366;2023-07-13T05:10:11;17.10;99.90
26623;DHT22;14254;50.968;5.366;2023-07-13T05:12:37;17.10;99.90
26623;DHT22;14254;50.968;5.366;2023-07-13T05:15:03;17.10;99.90
26623;DHT22;14254;50.968;5.366;2023-07-13T05:17:29;17.30;99.90
26623;DHT22;14254;50.968;5.366;2023-07-13T05:19:54;17.10;99.90
26623;DHT22;14254;50.968;5.366;2023-07-13T05:22:21;17.10;99.90
26623;DHT22;14254;50.968;5.366;2023-07-13T05:24:46;17.00;99.90
26623;DHT22;14254;50.968;5.366;2023-07-13T05:27:12;17.20;99.90
26623;DHT22;14254;50.968;5.366;2023-07-13T05:29:38;17.30;99.90
26623;DHT22;14254;50.968;5.366;2023-07-13T05:32:04;17.30;99.90
26623;DHT22;14254;50.968;5.366;2023-07-13T05:34:29;17.50;99.90
26623;DHT22;14254;50.968;5.366;2023-07-13T05:36:55;17.50;99.90
26623;DHT22;14254;50.968;5.366;2023-07-13T05:39:21;17.60;99.90
26623;DHT22;14254;50.968;5.366;2023-07-13T05:41:47;17.70;99.90
26623;DHT22;14254;50.968;5.366;2023-07-13T05:44:12;17.80;99.90
26623;DHT22;14254;50.968;5.366;2023-07-13T05:46:38;17.90;99.90
26623;DHT22;14254;50.968;5.366;2023-07-13T05:49:04;18.00;99.90
26623;DHT22;14254;50.968;5.366;2023-07-13T05:51:29;18.00;99.90
26623;DHT22;14254;50.968;5.366;2023-07-13T05:53:55;18.00;99.90
26623;DHT22;14254;50.968;5.366;2023-07-13T05:56:21;17.90;99.90
26623;DHT22;14254;50.968;5.366;2023-07-13T05:58:48;17.90;99.90
26623;DHT22;14254;50.968;5.366;2023-07-13T06:01:15;17.90;99.90
26623;DHT22;14254;50.968;5.366;2023-07-13T06:03:41;18.00;99.90
26623;DHT22;14254;50.968;5.366;2023-07-13T06:06:09;18.00;99.90
26623;DHT22;14254;50.968;5.366;2023-07-13T06:08:35;18.20;99.90
26623;DHT22;14254;50.968;5.366;2023-07-13T06:11:06;18.20;99.90
26623;DHT22;14254;50.968;5.366;2023-07-13T06:13:32;18.20;99.90
26623;DHT22;14254;50.968;5.366;2023-07-13T06:15:59;18.00;99.90
26623;DHT22;14254;50.968;5.366;2023-07-13T06:18:25;18.00;99.90
26623;DHT22;14254;50.968;5.366;2023-07-13T06:20:51;18.10;99.90
26623;DHT22;14254;50.968;5.366;2023-07-13T06:23:16;18.10;99.90
26623;DHT22;14254;50.968;5.366;2023-07-13T06:25:43;18.00;99.90
26623;DHT22;14254;50.968;5.366;2023-07-13T06:28:09;18.10;99.90
26623;DHT22;14254;50.968;5.366;2023-07-13T06:30:34;18.20;99.90
26623;DHT22;14254;50.968;5.366;2023-07-13T06:33:00;18.30;99.90
26623;DHT22;14254;50.968;5.366;2023-07-13T06:35:26;18.50;99.90
26623;DHT22;14254;50.968;5.366;2023-07-13T06:37:51;18.30;99.90
26623;DHT22;14254;50.968;5.366;2023-07-13T06:40:17;18.40;99.90
26623;DHT22;14254;50.968;5.366;2023-07-13T06:42:42;18.50;99.90
26623;DHT22;14254;50.968;5.366;2023-07-13T06:45:08;18.60;99.90
26623;DHT22;14254;50.968;5.366;2023-07-13T06:47:34;18.50;99.90
26623;DHT22;14254;50.968;5.366;2023-07-13T06:50:00;18.60;99.90
26623;DHT22;14254;50.968;5.366;2023-07-13T06:52:26;18.70;99.90
26623;DHT22;14254;50.968;5.366;2023-07-13T06:54:52;18.70;99.90
26623;DHT22;14254;50.968;5.366;2023-07-13T06:57:17;18.80;99.90
26623;DHT22;14254;50.968;5.366;2023-07-13T06:59:43;19.00;99.90
26623;DHT22;14254;50.968;5.366;2023-07-13T07:02:10;18.90;99.90
26623;DHT22;14254;50.968;5.366;2023-07-13T07:04:36;19.00;99.90
26623;DHT22;14254;50.968;5.366;2023-07-13T07:07:02;19.00;99.90
26623;DHT22;14254;50.968;5.366;2023-07-13T07:09:27;19.30;99.90
26623;DHT22;14254;50.968;5.366;2023-07-13T07:11:55;19.50;99.90
26623;DHT22;14254;50.968;5.366;2023-07-13T07:14:21;19.60;99.90
26623;DHT22;14254;50.968;5.366;2023-07-13T07:16:46;19.70;99.90
26623;DHT22;14254;50.968;5.366;2023-07-13T07:19:12;19.70;99.90
26623;DHT22;14254;50.968;5.366;2023-07-13T07:21:38;19.70;99.90
26623;DHT22;14254;50.968;5.366;2023-07-13T07:24:04;19.60;99.90
26623;DHT22;14254;50.968;5.366;2023-07-13T07:26:31;19.50;99.90
26623;DHT22;14254;50.968;5.366;2023-07-13T07:28:56;19.50;99.90
26623;DHT22;14254;50.968;5.366;2023-07-13T07:31:22;19.50;99.90
26623;DHT22;14254;50.968;5.366;2023-07-13T07:33:48;19.60;99.90
26623;DHT22;14254;50.968;5.366;2023-07-13T07:36:15;19.50;99.90
26623;DHT22;14254;50.968;5.366;2023-07-13T07:38:42;19.40;99.90
26623;DHT22;14254;50.968;5.366;2023-07-13T07:41:07;19.40;99.90
26623;DHT22;14254;50.968;5.366;2023-07-13T07:43:33;19.60;99.90
26623;DHT22;14254;50.968;5.366;2023-07-13T07:45:59;19.70;99.90
26623;DHT22;14254;50.968;5.366;2023-07-13T07:48:24;19.80;99.90
26623;DHT22;14254;50.968;5.366;2023-07-13T07:50:50;19.70;99.90
26623;DHT22;14254;50.968;5.366;2023-07-13T07:53:16;19.90;99.90
26623;DHT22;14254;50.968;5.366;2023-07-13T07:55:42;20.00;99.90
26623;DHT22;14254;50.968;5.366;2023-07-13T07:58:07;20.10;99.90
26623;DHT22;14254;50.968;5.366;2023-07-13T08:00:33;20.40;99.90
26623;DHT22;14254;50.968;5.366;2023-07-13T08:02:59;20.50;99.90
26623;DHT22;14254;50.968;5.366;2023-07-13T08:05:25;20.50;99.90
26623;DHT22;14254;50.968;5.366;2023-07-13T08:07:51;20.60;99.90
26623;DHT22;14254;50.968;5.366;2023-07-13T08:10:17;20.70;99.90
26623;DHT22;14254;50.968;5.366;2023-07-13T08:12:43;20.90;99.90
26623;DHT22;14254;50.968;5.366;2023-07-13T08:15:13;21.10;99.90
26623;DHT22;14254;50.968;5.366;2023-07-13T08:17:39;21.20;99.90
26623;DHT22;14254;50.968;5.366;2023-07-13T08:20:06;21.40;99.90
26623;DHT22;14254;50.968;5.366;2023-07-13T08:22:32;21.60;99.90
26623;DHT22;14254;50.968;5.366;2023-07-13T08:24:59;21.50;99.90
26623;DHT22;14254;50.968;5.366;2023-07-13T08:27:26;21.30;99.90
26623;DHT22;14254;50.968;5.366;2023-07-13T08:29:53;21.50;99.90
26623;DHT22;14254;50.968;5.366;2023-07-13T08:32:20;21.40;99.90
26623;DHT22;14254;50.968;5.366;2023-07-13T08:34:46;21.50;99.90
26623;DHT22;14254;50.968;5.366;2023-07-13T08:37:12;21.70;99.90
26623;DHT22;14254;50.968;5.366;2023-07-13T08:39:38;21.70;99.90
26623;DHT22;14254;50.968;5.366;2023-07-13T08:42:27;21.60;99.90
26623;DHT22;14254;50.968;5.366;2023-07-13T08:47:51;21.50;99.90
26623;DHT22;14254;50.968;5.366;2023-07-13T08:50:23;21.30;99.90
26623;DHT22;14254;50.968;5.366;2023-07-13T08:52:49;21.80;99.90
26623;DHT22;14254;50.968;5.366;2023-07-13T08:55:24;21.70;99.90
26623;DHT22;14254;50.968;5.366;2023-07-13T08:58:03;21.80;99.90
26623;DHT22;14254;50.968;5.366;2023-07-13T09:00:52;21.70;99.90
26623;DHT22;14254;50.968;5.366;2023-07-13T09:03:23;21.70;99.90
26623;DHT22;14254;50.968;5.366;2023-07-13T09:05:58;21.60;99.90
26623;DHT22;14254;50.968;5.366;2023-07-13T09:11:30;21.90;99.90
26623;DHT22;14254;50.968;5.366;2023-07-13T09:16:26;22.40;99.90
26623;DHT22;14254;50.968;5.366;2023-07-13T09:18:56;22.30;99.90
26623;DHT22;14254;50.968;5.366;2023-07-13T09:21:25;22.30;99.90
26623;DHT22;14254;50.968;5.366;2023-07-13T09:24:00;22.30;99.90
26623;DHT22;14254;50.968;5.366;2023-07-13T09:26:28;22.20;99.90
26623;DHT22;14254;50.968;5.366;2023-07-13T09:28:59;22.30;99.90
26623;DHT22;14254;50.968;5.366;2023-07-13T09:31:34;22.50;99.90
26623;DHT22;14254;50.968;5.366;2023-07-13T09:34:03;22.30;99.90
26623;DHT22;14254;50.968;5.366;2023-07-13T09:36:31;22.30;99.90
26623;DHT22;14254;50.968;5.366;2023-07-13T09:39:33;22.30;99.90
26623;DHT22;14254;50.968;5.366;2023-07-13T09:42:16;22.40;99.90
26623;DHT22;14254;50.968;5.366;2023-07-13T09:45:00;22.40;99.90
26623;DHT22;14254;50.968;5.366;2023-07-13T09:47:38;22.40;99.90
26623;DHT22;14254;50.968;5.366;2023-07-13T09:50:15;22.30;99.90
26623;DHT22;14254;50.968;5.366;2023-07-13T09:52:46;22.00;99.90
26623;DHT22;14254;50.968;5.366;2023-07-13T09:55:34;21.70;99.90
26623;DHT22;14254;50.968;5.366;2023-07-13T09:58:13;21.50;99.90
26623;DHT22;14254;50.968;5.366;2023-07-13T10:00:39;21.50;99.90
26623;DHT22;14254;50.968;5.366;2023-07-13T10:03:13;21.60;99.90
26623;DHT22;14254;50.968;5.366;2023-07-13T10:05:44;21.70;99.90
26623;DHT22;14254;50.968;5.366;2023-07-13T10:08:29;22.00;99.90
26623;DHT22;14254;50.968;5.366;2023-07-13T10:11:09;22.10;99.90
26623;DHT22;14254;50.968;5.366;2023-07-13T10:13:40;22.70;99.90
26623;DHT22;14254;50.968;5.366;2023-07-13T10:16:07;23.10;99.90
26623;DHT22;14254;50.968;5.366;2023-07-13T10:18:42;23.40;99.90
26623;DHT22;14254;50.968;5.366;2023-07-13T10:21:19;23.70;99.90
26623;DHT22;14254;50.968;5.366;2023-07-13T10:23:53;24.00;99.90
26623;DHT22;14254;50.968;5.366;2023-07-13T10:26:26;24.10;99.90
26623;DHT22;14254;50.968;5.366;2023-07-13T10:28:55;24.10;99.90
26623;DHT22;14254;50.968;5.366;2023-07-13T10:31:22;24.30;99.90
26623;DHT22;14254;50.968;5.366;2023-07-13T10:33:49;24.50;99.90
26623;DHT22;14254;50.968;5.366;2023-07-13T10:36:34;24.60;99.90
26623;DHT22;14254;50.968;5.366;2023-07-13T10:39:03;24.60;99.90
26623;DHT22;14254;50.968;5.366;2023-07-13T10:41:32;24.40;99.90
26623;DHT22;14254;50.968;5.366;2023-07-13T10:43:59;24.50;99.90
26623;DHT22;14254;50.968;5.366;2023-07-13T10:46:27;24.10;99.90
26623;DHT22;14254;50.968;5.366;2023-07-13T10:49:05;24.40;99.90
26623;DHT22;14254;50.968;5.366;2023-07-13T10:51:32;24.40;99.90
26623;DHT22;14254;50.968;5.366;2023-07-13T10:54:20;24.40;99.90
26623;DHT22;14254;50.968;5.366;2023-07-13T10:56:52;24.00;99.90
26623;DHT22;14254;50.968;5.366;2023-07-13T10:59:19;23.60;99.90
26623;DHT22;14254;50.968;5.366;2023-07-13T11:04:22;23.40;99.90
26623;DHT22;14254;50.968;5.366;2023-07-13T11:07:09;23.60;99.90
26623;DHT22;14254;50.968;5.366;2023-07-13T11:09:38;24.00;99.90
26623;DHT22;14254;50.968;5.366;2023-07-13T11:12:26;24.20;99.90
26623;DHT22;14254;50.968;5.366;2023-07-13T11:25:32;24.60;99.90
26623;DHT22;14254;50.968;5.366;2023-07-13T11:34:01;24.30;99.90
26623;DHT22;14254;50.968;5.366;2023-07-13T11:36:16;24.30;99.90
26623;DHT22;14254;50.968;5.366;2023-07-13T11:39:13;24.10;99.90
26623;DHT22;14254;50.968;5.366;2023-07-13T11:41:57;24.60;99.90
26623;DHT22;14254;50.968;5.366;2023-07-13T11:44:25;25.70;99.90
26623;DHT22;14254;50.968;5.366;2023-07-13T11:46:56;27.40;99.90
26623;DHT22;14254;50.968;5.366;2023-07-13T11:49:28;28.50;98.60
26623;DHT22;14254;50.968;5.366;2023-07-13T11:51:55;29.10;97.20
26623;DHT22;14254;50.968;5.366;2023-07-13T11:56:55;30.40;94.50
26623;DHT22;14254;50.968;5.366;2023-07-13T11:59:21;29.30;95.70
26623;DHT22;14254;50.968;5.366;2023-07-13T12:01:52;28.20;96.80
26623;DHT22;14254;50.968;5.366;2023-07-13T12:04:24;27.00;97.70
26623;DHT22;14254;50.968;5.366;2023-07-13T12:06:58;27.80;96.90
26623;DHT22;14254;50.968;5.366;2023-07-13T12:09:29;27.30;96.60
26623;DHT22;14254;50.968;5.366;2023-07-13T12:11:57;26.60;98.10
26623;DHT22;14254;50.968;5.366;2023-07-13T12:14:25;26.20;98.40
26623;DHT22;14254;50.968;5.366;2023-07-13T12:16:53;26.00;98.70
26623;DHT22;14254;50.968;5.366;2023-07-13T12:19:26;25.70;98.40
26623;DHT22;14254;50.968;5.366;2023-07-13T12:21:58;25.40;99.10
26623;DHT22;14254;50.968;5.366;2023-07-13T12:24:25;25.20;98.40
26623;DHT22;14254;50.968;5.366;2023-07-13T12:29:18;25.80;98.20
26623;DHT22;14254;50.968;5.366;2023-07-13T12:31:46;26.20;97.60
26623;DHT22;14254;50.968;5.366;2023-07-13T12:34:17;26.00;97.60
26623;DHT22;14254;50.968;5.366;2023-07-13T12:39:28;27.10;97.40
26623;DHT22;14254;50.968;5.366;2023-07-13T12:42:21;27.30;97.00
26623;DHT22;14254;50.968;5.366;2023-07-13T12:44:50;26.70;97.40
26623;DHT22;14254;50.968;5.366;2023-07-13T12:47:20;26.40;97.30
26623;DHT22;14254;50.968;5.366;2023-07-13T12:50:04;26.20;97.60
26623;DHT22;14254;50.968;5.366;2023-07-13T12:52:37;27.70;96.80
26623;DHT22;14254;50.968;5.366;2023-07-13T12:55:17;28.50;94.80
26623;DHT22;14254;50.968;5.366;2023-07-13T12:57:50;27.40;95.60
26623;DHT22;14254;50.968;5.366;2023-07-13T13:00:32;27.10;96.30
26623;DHT22;14254;50.968;5.366;2023-07-13T13:05:59;26.80;96.00
26623;DHT22;14254;50.968;5.366;2023-07-13T13:08:34;26.50;95.90
26623;DHT22;14254;50.968;5.366;2023-07-13T13:11:00;25.90;96.00
26623;DHT22;14254;50.968;5.366;2023-07-13T13:13:26;25.20;97.20
26623;DHT22;14254;50.968;5.366;2023-07-13T13:15:52;24.90;97.90
26623;DHT22;14254;50.968;5.366;2023-07-13T13:18:22;24.60;98.40
26623;DHT22;14254;50.968;5.366;2023-07-13T13:20:50;24.40;98.80
26623;DHT22;14254;50.968;5.366;2023-07-13T13:23:18;24.10;99.50
26623;DHT22;14254;50.968;5.366;2023-07-13T13:25:45;23.50;99.90
26623;DHT22;14254;50.968;5.366;2023-07-13T13:28:17;23.20;99.90
26623;DHT22;14254;50.968;5.366;2023-07-13T13:30:44;22.70;99.90
26623;DHT22;14254;50.968;5.366;2023-07-13T13:33:15;22.00;99.90
26623;DHT22;14254;50.968;5.366;2023-07-13T13:35:43;21.50;99.90
26623;DHT22;14254;50.968;5.366;2023-07-13T13:38:14;21.20;99.90
26623;DHT22;14254;50.968;5.366;2023-07-13T13:40:41;21.00;99.90
26623;DHT22;14254;50.968;5.366;2023-07-13T13:43:26;20.50;99.90
26623;DHT22;14254;50.968;5.366;2023-07-13T13:45:54;20.60;99.90
26623;DHT22;14254;50.968;5.366;2023-07-13T13:48:29;20.50;99.90
26623;DHT22;14254;50.968;5.366;2023-07-13T13:50:57;20.40;99.90
26623;DHT22;14254;50.968;5.366;2023-07-13T13:53:23;20.10;99.90
26623;DHT22;14254;50.968;5.366;2023-07-13T13:55:50;20.00;99.90
26623;DHT22;14254;50.968;5.366;2023-07-13T13:58:17;20.10;99.90
26623;DHT22;14254;50.968;5.366;2023-07-13T14:00:43;20.30;99.90
26623;DHT22;14254;50.968;5.366;2023-07-13T14:03:20;20.20;99.90
26623;DHT22;14254;50.968;5.366;2023-07-13T14:05:48;20.20;99.90
26623;DHT22;14254;50.968;5.366;2023-07-13T14:08:16;20.30;99.90
26623;DHT22;14254;50.968;5.366;2023-07-13T14:10:42;20.20;99.90
26623;DHT22;14254;50.968;5.366;2023-07-13T14:15:43;20.20;99.90
26623;DHT22;14254;50.968;5.366;2023-07-13T14:18:09;20.70;99.90
26623;DHT22;14254;50.968;5.366;2023-07-13T14:20:34;21.00;99.90
26623;DHT22;14254;50.968;5.366;2023-07-13T14:23:00;21.40;99.90
26623;DHT22;14254;50.968;5.366;2023-07-13T14:25:26;21.70;99.90
26623;DHT22;14254;50.968;5.366;2023-07-13T14:27:57;22.10;99.90
26623;DHT22;14254;50.968;5.366;2023-07-13T14:30:24;21.90;99.90
26623;DHT22;14254;50.968;5.366;2023-07-13T14:32:51;22.10;99.90
26623;DHT22;14254;50.968;5.366;2023-07-13T14:35:18;22.20;99.90
26623;DHT22;14254;50.968;5.366;2023-07-13T14:37:46;22.20;99.90
26623;DHT22;14254;50.968;5.366;2023-07-13T14:40:31;22.30;99.90
26623;DHT22;14254;50.968;5.366;2023-07-13T14:42:57;22.30;99.90
26623;DHT22;14254;50.968;5.366;2023-07-13T14:45:24;22.50;99.90
26623;DHT22;14254;50.968;5.366;2023-07-13T14:47:50;22.80;99.90
26623;DHT22;14254;50.968;5.366;2023-07-13T14:50:20;22.90;99.90
26623;DHT22;14254;50.968;5.366;2023-07-13T14:52:47;23.10;99.90
26623;DHT22;14254;50.968;5.366;2023-07-13T14:55:15;23.20;99.90
26623;DHT22;14254;50.968;5.366;2023-07-13T14:57:41;23.30;99.90
26623;DHT22;14254;50.968;5.366;2023-07-13T15:00:14;23.50;99.90
26623;DHT22;14254;50.968;5.366;2023-07-13T15:02:44;24.10;99.90
26623;DHT22;14254;50.968;5.366;2023-07-13T15:05:17;25.50;99.90
26623;DHT22;14254;50.968;5.366;2023-07-13T15:07:44;27.10;99.90
26623;DHT22;14254;50.968;5.366;2023-07-13T15:10:33;28.50;99.50
26623;DHT22;14254;50.968;5.366;2023-07-13T15:13:04;29.00;98.60
26623;DHT22;14254;50.968;5.366;2023-07-13T15:15:39;29.30;97.90
26623;DHT22;14254;50.968;5.366;2023-07-13T15:18:09;29.40;97.40
26623;DHT22;14254;50.968;5.366;2023-07-13T15:20:36;30.10;96.40
26623;DHT22;14254;50.968;5.366;2023-07-13T15:23:02;30.60;95.40
26623;DHT22;14254;50.968;5.366;2023-07-13T15:25:29;31.00;94.40
26623;DHT22;14254;50.968;5.366;2023-07-13T15:27:56;32.40;92.20
26623;DHT22;14254;50.968;5.366;2023-07-13T15:30:26;33.20;91.00
26623;DHT22;14254;50.968;5.366;2023-07-13T15:32:52;33.20;89.80
26623;DHT22;14254;50.968;5.366;2023-07-13T15:35:24;33.10;89.00
26623;DHT22;14254;50.968;5.366;2023-07-13T15:37:50;33.60;89.20
26623;DHT22;14254;50.968;5.366;2023-07-13T15:40:17;33.90;86.60
26623;DHT22;14254;50.968;5.366;2023-07-13T15:42:43;33.40;86.40
26623;DHT22;14254;50.968;5.366;2023-07-13T15:45:22;33.30;87.00
26623;DHT22;14254;50.968;5.366;2023-07-13T15:47:48;32.80;86.70
26623;DHT22;14254;50.968;5.366;2023-07-13T15:50:17;32.90;87.30
26623;DHT22;14254;50.968;5.366;2023-07-13T15:52:45;33.80;85.50
26623;DHT22;14254;50.968;5.366;2023-07-13T15:55:13;33.90;83.00
26623;DHT22;14254;50.968;5.366;2023-07-13T15:57:46;32.40;84.60
26623;DHT22;14254;50.968;5.366;2023-07-13T16:00:23;31.10;86.50
26623;DHT22;14254;50.968;5.366;2023-07-13T16:02:49;30.40;88.60
26623;DHT22;14254;50.968;5.366;2023-07-13T16:05:16;31.10;87.90
26623;DHT22;14254;50.968;5.366;2023-07-13T16:07:43;30.90;87.40
26623;DHT22;14254;50.968;5.366;2023-07-13T16:10:25;30.60;89.90
26623;DHT22;14254;50.968;5.366;2023-07-13T16:12:51;31.80;88.40
26623;DHT22;14254;50.968;5.366;2023-07-13T16:15:20;31.50;87.60
26623;DHT22;14254;50.968;5.366;2023-07-13T16:17:46;31.20;89.10
26623;DHT22;14254;50.968;5.366;2023-07-13T16:20:13;30.20;89.00
26623;DHT22;14254;50.968;5.366;2023-07-13T16:22:41;29.50;90.40